University Place, Washington
Current Conditions -  °F | °C
As of 11:53 AM on Monday 22 Dec 2014 (Local Time) from KTIW Reporting Station
Broken Clouds Broken Clouds  
Wind Chill: 47°   Ceiling: 1200
Heat Index: 47°   Visibility: 10mi
Dew Point: 42°   Wind: 0mph
Humidity: 83%   Direction: NA
Pressure: 30.36"   Gusts: NA
Location:  47.22°N, 122.53°W
Report Text: KTIW 221953Z 00000KT 10SM SCT005 BKN012 08/06 A3036 RMK AO2 SLP282 T00830056
Loading
Personal Weather Stations






























Interactive Weather Map New forecast layout! Learn more

10-Day Weather Forecast

Advertisements
Track Severe Weather on mobile